Plattekill, New York
Current Conditions -  °F | °C
As of 2:45 PM on Wednesday 28 Jan 2015 (Local Time) from KSWF Reporting Station
Clear Clear  
Wind Chill: 22°   Ceiling: Unl
Heat Index: 30°   Visibility: 20mi
Dew Point: 10°   Wind: 9mph
Humidity: 44%   Direction: 10°N
Pressure: 30.07"   Gusts: NA
Location:  41.62°N, 74.08°W
Report Text: KSWF 281945Z 01008KT 20SM SKC M01/M12 A3007
Loading
Personal Weather Stations






























Interactive Weather Map New forecast layout! Learn more

10-Day Weather Forecast

Advertisements
Track Severe Weather on mobile